Flight Track Log - Related Links

Times and Time Zones

All times are in EST time to prevent confusion due to time zone crossing. See the N363NH flight status page for this flight to view local times or setup timezone preferences in your user account.

Time Position Orientation Groundspeed Altitude Reporting Facility
EST Latitude Longitude Course Direction KTS MPH feet Rate Location/Type
Fri 01:10:51 PM 47.5453 -122.3153 327° Northwest 174 200 1,100  Level Seattle Center
Fri 01:11:58 PM 47.6042 -122.3714 327° Northwest 240 276 4,200 3,161 Climbing Seattle Center
Fri 01:12:43 PM 47.6119 -122.4444 279° West 259 298 7,000 3,396 Climbing Seattle Center
Fri 01:13:44 PM 47.5444 -122.4647 191° South 286 329 10,200 2,927 Climbing Seattle Center
Fri 01:14:46 PM 47.4644 -122.4258 162° South 308 354 13,000 2,634 Climbing Seattle Center
Fri 01:15:47 PM 47.3717 -122.3750 160° South 335 386 15,600 2,459 Climbing Seattle Center
Fri 01:16:48 PM 47.2814 -122.3286 161° South 356 410 18,000 2,213 Climbing Seattle Center
Fri 01:17:49 PM 47.1981 -122.2411 144° Southeast 372 428 20,100 2,066 Climbing Seattle Center
Fri 01:18:50 PM 47.1128 -122.1422 142° Southeast 389 448 22,200 1,967 Climbing Seattle Center
Fri 01:19:51 PM 47.0233 -122.0406 142° Southeast 405 466 24,100 1,869 Climbing Seattle Center
Fri 01:20:52 PM 46.9300 -121.9325 142° Southeast 424 488 26,000 1,721 Climbing Seattle Center
Fri 01:21:53 PM 46.8344 -121.8250 142° Southeast 433 498 27,600 1,328 Climbing Seattle Center
Fri 01:22:54 PM 46.7350 -121.7106 142° Southeast 452 520 28,700 1,574 Climbing Seattle Center
Fri 01:23:55 PM 46.6242 -121.5856 142° Southeast 459 528 30,800 1,918 Climbing Seattle Center
Fri 01:24:56 PM 46.5242 -121.4728 142° Southeast 458 527 32,600 1,721 Climbing Seattle Center
Fri 01:25:57 PM 46.4233 -121.3606 142° Southeast 456 525 34,300 1,672 Climbing Seattle Center
Fri 01:26:58 PM 46.3236 -121.2497 142° Southeast 455 524 36,000 1,672 Climbing Seattle Center
Fri 01:27:59 PM 46.2242 -121.1400 143° Southeast 452 520 37,700 1,525 Climbing Seattle Center
Fri 01:29:00 PM 46.1222 -121.0347 144° Southeast 453 521 39,100 1,475 Climbing Seattle Center
Fri 01:30:01 PM 45.9864 -120.9372 153° Southeast 456 525 40,700 927 Climbing Seattle Center
Fri 01:31:03 PM 45.8728 -120.8525 153° Southeast 459 528 41,000 146 Climbing Seattle Center
Fri 01:32:04 PM 45.7517 -120.7611 152° Southeast 485 558 41,000  Level Seattle Center
Fri 01:33:05 PM 45.6286 -120.6692 152° Southeast 497 572 41,000  Level Seattle Center
Fri 01:34:06 PM 45.5033 -120.5744 152° Southeast 509 586 41,000  Level Seattle Center
Fri 01:35:07 PM 45.3792 -120.4842 153° Southeast 506 582 41,000  Level Seattle Center
Fri 01:36:08 PM 45.2569 -120.3950 153° Southeast 498 573 41,000  Level Seattle Center
Fri 01:37:09 PM 45.1372 -120.3061 152° Southeast 492 566 41,000  Level Seattle Center
Fri 01:38:10 PM 45.0189 -120.2194 153° Southeast 488 562 41,000  Level Seattle Center
Fri 01:39:12 PM 44.8808 -120.1183 153° Southeast 480 552 41,000  Level Seattle Center
Fri 01:40:13 PM 44.7664 -120.0361 153° Southeast 474 545 41,000  Level Seattle Center
Fri 01:41:14 PM 44.6506 -119.9525 153° Southeast 474 545 41,000  Level Seattle Center
Fri 01:42:15 PM 44.5331 -119.8689 153° Southeast 476 548 41,000 295 Level Seattle Center
Fri 01:43:16 PM 44.4142 -119.7836 153° Southeast 480 552 41,600 537 Climbing Seattle Center
Fri 01:44:18 PM 44.2967 -119.6989 153° Southeast 479 551 42,100 488 Climbing Seattle Center
Fri 01:45:19 PM 44.1781 -119.6172 154° Southeast 478 550 42,600 443 Climbing Seattle Center
Fri 01:46:20 PM 44.0353 -119.5169 153° Southeast 476 548 43,000 197 Climbing Seattle Center
Fri 01:47:21 PM 43.9189 -119.4356 153° Southeast 476 548 43,000  Level Seattle Center
Fri 01:48:23 PM 43.8008 -119.3539 153° Southeast 474 545 43,000  Level Seattle Center
Fri 01:49:24 PM 43.6828 -119.2728 154° Southeast 474 545 43,000  Level Seattle Center
Fri 01:50:25 PM 43.5656 -119.1925 154° Southeast 473 544 43,000  Level Seattle Center
Fri 01:51:26 PM 43.4483 -119.1117 153° Southeast 470 541 43,000  Level Seattle Center
Fri 01:52:28 PM 43.3317 -119.0306 153° Southeast 471 542 43,000  Level Seattle Center
Fri 01:53:29 PM 43.2083 -118.9478 154° Southeast 464 534 43,000  Level Seattle Center
Fri 01:54:30 PM 43.0922 -118.8694 154° Southeast 466 536 43,000  Level Seattle Center
Fri 01:55:31 PM 42.9750 -118.7897 154° Southeast 472 543 43,000  Level Seattle Center
Fri 01:56:33 PM 42.8603 -118.7111 153° Southeast 465 535 43,000  Level Seattle Center
Fri 01:57:34 PM 42.7219 -118.6211 154° Southeast 462 532 43,000  Level Seattle Center
Fri 01:58:35 PM 42.6067 -118.5425 153° Southeast 464 534 43,000  Level Seattle Center
Fri 01:59:37 PM 42.4858 -118.4636 154° Southeast 462 532 43,000  Level Seattle Center
Fri 02:00:38 PM 42.3758 -118.3919 154° Southeast 460 529 43,000  Level Seattle Center
Fri 02:01:08 PM 42.3214 -118.3558 154° Southeast 457 526 43,000  Level Salt Lake Center
Fri 02:02:10 PM 42.2128 -118.2831 154° Southeast 455 524 43,000  Level Salt Lake Center
Fri 02:03:12 PM 42.0833 -118.1981 154° Southeast 460 529 43,000  Level Salt Lake Center
Fri 02:04:14 PM 41.9731 -118.1275 155° Southeast 460 529 43,000  Level Salt Lake Center
Fri 02:05:16 PM 41.8444 -118.0436 154° Southeast 460 529 43,000  Level Salt Lake Center
Fri 02:06:18 PM 41.7506 -117.9419 141° Southeast 451 519 43,000  Level Salt Lake Center
Fri 02:07:20 PM 41.6497 -117.8097 136° Southeast 453 521 43,000  Level Salt Lake Center
Fri 02:08:22 PM 41.5611 -117.6986 137° Southeast 456 525 43,000  Level Salt Lake Center
Fri 02:09:24 PM 41.4586 -117.5681 136° Southeast 455 524 43,000  Level Salt Lake Center
Fri 02:10:26 PM 41.3706 -117.4578 137° Southeast 454 522 43,000  Level Salt Lake Center
Fri 02:11:28 PM 41.2689 -117.3297 137° Southeast 451 519 43,000  Level Salt Lake Center
Fri 02:12:30 PM 41.1811 -117.2175 136° Southeast 454 522 43,000  Level Salt Lake Center
Fri 02:13:32 PM 41.0919 -117.1081 137° Southeast 455 524 43,000  Level Salt Lake Center
Fri 02:14:34 PM 40.9883 -116.9786 137° Southeast 456 525 43,000  Level Salt Lake Center
Fri 02:15:36 PM 40.8986 -116.8681 137° Southeast 459 528 43,000  Level Salt Lake Center
Fri 02:16:38 PM 40.7939 -116.7394 137° Southeast 457 526 43,000  Level Salt Lake Center
Fri 02:17:40 PM 40.7042 -116.6297 137° Southeast 456 525 43,000  Level Salt Lake Center
Fri 02:18:42 PM 40.6011 -116.5008 136° Southeast 454 522 43,000  Level Salt Lake Center
Fri 02:19:44 PM 40.5111 -116.3917 137° Southeast 455 524 43,000  Level Salt Lake Center
Fri 02:20:46 PM 40.4208 -116.2842 138° Southeast 454 522 43,000  Level Salt Lake Center
Fri 02:21:48 PM 40.3169 -116.1583 137° Southeast 453 521 43,000  Level Salt Lake Center
Fri 02:22:50 PM 40.2283 -116.0500 137° Southeast 453 521 43,000  Level Salt Lake Center
Fri 02:23:52 PM 40.1256 -115.9261 137° Southeast 449 517 43,000  Level Salt Lake Center
Fri 02:24:54 PM 40.0378 -115.8206 137° Southeast 447 514 43,000  Level Salt Lake Center
Fri 02:25:56 PM 39.9347 -115.6961 137° Southeast 451 519 43,000  Level Salt Lake Center
Fri 02:26:58 PM 39.8436 -115.5936 139° Southeast 450 518 43,000  Level Salt Lake Center
Fri 02:28:00 PM 39.7408 -115.4728 138° Southeast 446 513 43,000  Level Salt Lake Center
Fri 02:29:02 PM 39.6550 -115.3664 136° Southeast 444 511 43,000  Level Salt Lake Center
Fri 02:30:05 PM 39.5661 -115.2650 139° Southeast 445 512 43,000  Level Salt Lake Center
Fri 02:31:07 PM 39.4642 -115.1444 138° Southeast 443 510 43,000  Level Salt Lake Center
Fri 02:32:09 PM 39.3742 -115.0456 140° Southeast 442 509 43,000  Level Salt Lake Center
Fri 02:33:11 PM 39.2736 -114.9278 138° Southeast 438 504 43,000  Level Salt Lake Center
Fri 02:34:13 PM 39.1850 -114.8286 139° Southeast 438 504 43,000  Level Salt Lake Center
Fri 02:35:15 PM 39.0861 -114.7122 138° Southeast 438 504 43,000  Level Salt Lake Center
Fri 02:36:17 PM 38.9969 -114.6094 138° Southeast 434 499 43,000  Level Salt Lake Center
Fri 02:37:19 PM 38.9067 -114.5064 138° Southeast 435 501 43,000  Level Salt Lake Center
Fri 02:38:21 PM 38.8164 -114.4039 138° Southeast 435 501 43,000  Level Salt Lake Center
Fri 02:39:22 PM 38.7089 -114.2806 138° Southeast 434 499 43,000  Level Salt Lake Center
Fri 02:40:24 PM 38.6172 -114.1803 139° Southeast 434 499 43,000  Level Salt Lake Center
Fri 02:41:26 PM 38.5281 -114.0794 138° Southeast 430 495 43,000  Level Salt Lake Center
Fri 02:42:28 PM 38.4400 -113.9806 139° Southeast 425 489 43,000  Level Salt Lake Center
Fri 02:43:30 PM 38.3525 -113.8839 139° Southeast 419 482 43,000  Level Salt Lake Center
Fri 02:44:32 PM 38.2647 -113.7856 139° Southeast 419 482 43,000  Level Salt Lake Center
Fri 02:45:34 PM 38.1772 -113.6892 139° Southeast 418 481 43,000  Level Salt Lake Center
Fri 02:46:36 PM 38.0725 -113.5761 140° Southeast 414 476 43,000  Level Salt Lake Center
Fri 02:47:37 PM 37.9847 -113.4800 139° Southeast 417 480 43,000  Level Salt Lake Center
Fri 02:48:39 PM 37.8944 -113.3892 142° Southeast 416 479 43,000  Level Salt Lake Center
Fri 02:49:41 PM 37.7869 -113.3508 164° South 403 464 43,000  Level Salt Lake Center
Fri 02:50:43 PM 37.6797 -113.3175 166° South 401 461 43,000  Level Salt Lake Center
Fri 02:51:45 PM 37.5514 -113.2778 166° South 400 460 43,000  Level Salt Lake Center
Fri 02:52:56 PM 37.4219 -113.2381 166° South 402 463 43,000  Level Los Angeles Center
Fri 02:53:58 PM 37.3156 -113.2039 166° South 398 458 43,000  Level Los Angeles Center
Fri 02:55:00 PM 37.2075 -113.1703 166° South 401 461 43,000  Level Los Angeles Center
Fri 02:56:03 PM 37.0992 -113.1367 166° South 402 463 43,000  Level Los Angeles Center
Fri 02:57:05 PM 36.9911 -113.1025 166° South 402 463 43,000  Level Los Angeles Center
Fri 02:58:07 PM 36.8594 -113.0625 166° South 404 465 43,000  Level Los Angeles Center
Fri 02:59:09 PM 36.7497 -113.0297 167° South 406 467 43,000  Level Los Angeles Center
Fri 03:00:12 PM 36.6392 -112.9958 166° South 407 468 43,000  Level Los Angeles Center
Fri 03:01:14 PM 36.5286 -112.9628 166° South 410 472 43,000  Level Los Angeles Center
Fri 03:02:16 PM 36.4200 -112.9286 166° South 407 468 43,000  Level Los Angeles Center
Fri 03:03:18 PM 36.2894 -112.8892 166° South 404 465 43,000  Level Los Angeles Center
Fri 03:05:16 PM 36.0856 -112.8292 167° South 400 460 43,000  Level Albuquerque Center
Fri 03:06:17 PM 35.9778 -112.7969 166° South 400 460 43,000  Level Albuquerque Center
Fri 03:07:17 PM 35.8700 -112.7647 166° South 398 458 43,000  Level Albuquerque Center
Fri 03:08:29 PM 35.7417 -112.7269 167° South 397 457 43,000  Level Los Angeles Center
Fri 03:09:31 PM 35.6203 -112.6906 166° South 398 458 43,000  Level Los Angeles Center
Fri 03:10:33 PM 35.5119 -112.6594 167° South 398 458 43,000  Level Los Angeles Center
Fri 03:11:35 PM 35.4050 -112.6275 166° South 397 457 43,000  Level Los Angeles Center
Fri 03:12:27 PM 35.3275 -112.6033 166° South 398 458 43,000  Level Albuquerque Center
Fri 03:13:30 PM 35.1972 -112.5658 167° South 398 458 43,000  Level Albuquerque Center
Fri 03:14:30 PM 35.0897 -112.5347 167° South 396 456 43,000  Level Albuquerque Center
Fri 03:15:32 PM 34.9814 -112.5031 167° South 398 458 43,000 -195 Level Albuquerque Center
Fri 03:16:33 PM 34.8728 -112.4722 167° South 399 459 42,600 -585 Descending Albuquerque Center
Fri 03:17:35 PM 34.7628 -112.4397 166° South 405 466 41,800 -864 Descending Albuquerque Center
Fri 03:18:38 PM 34.6525 -112.4086 167° South 407 468 40,800 -968 Descending Albuquerque Center
Fri 03:19:39 PM 34.5433 -112.3769 167° South 405 466 39,800 -787 Descending Albuquerque Center
Fri 03:20:40 PM 34.4208 -112.3406 166° South 404 465 39,200 -384 Descending Albuquerque Center
Fri 03:21:44 PM 34.3128 -112.3097 167° South 402 463 39,000 -624 Descending Albuquerque Center
Fri 03:22:45 PM 34.2072 -112.2792 167° South 395 455 37,900 -1,686 Descending Albuquerque Center
Fri 03:23:45 PM 34.1033 -112.2497 167° South 385 443 35,600 -2,557 Descending Albuquerque Center
Fri 03:24:47 PM 33.9922 -112.2167 166° South 346 398 32,700 -2,244 Descending Albuquerque Center
Fri 03:25:48 PM 33.9061 -112.1919 167° South 324 373 31,000 -816 Descending Albuquerque Center
Fri 03:26:52 PM 33.8156 -112.1672 167° South 334 384 31,000  Level Albuquerque Center
Fri 03:27:52 PM 33.7233 -112.1417 167° South 341 392 31,000  Level Albuquerque Center
Fri 03:28:56 PM 33.6322 -112.1153 166° South 340 391 31,000  Level Albuquerque Center
Fri 03:29:56 PM 33.5225 -112.0844 167° South 339 390 31,000  Level Albuquerque Center
Fri 03:30:57 PM 33.4300 -112.0594 167° South 341 392 31,000  Level Albuquerque Center
Fri 03:32:01 PM 33.3383 -112.0342 167° South 340 391 31,000 -339 Level Albuquerque Center
Fri 03:33:01 PM 33.2447 -112.0078 167° South 343 395 30,300 -1,016 Descending Albuquerque Center
Fri 03:34:05 PM 33.1461 -111.9797 167° South 357 411 28,900 -1,500 Descending Albuquerque Center
Fri 03:35:05 PM 33.0469 -111.9519 167° South 366 421 27,200 -1,984 Descending Albuquerque Center
Fri 03:36:09 PM 32.9300 -111.9197 167° South 360 414 24,800 -2,274 Descending Albuquerque Center
Fri 03:37:09 PM 32.8342 -111.8669 155° Southeast 383 441 22,500 -2,311 Descending Albuquerque Center
Fri 03:38:11 PM 32.7442 -111.7897 144° Southeast 399 459 20,100 -2,143 Descending Albuquerque Center
Fri 03:39:15 PM 32.6628 -111.7211 145° Southeast 366 421 18,000 -2,170 Descending Albuquerque Center
Fri 03:39:45 PM 32.6089 -111.6825 149° Southeast 356 410 16,700 -1,967 Descending Albuquerque Center
Fri 03:40:16 PM 32.5833 -111.6586 142° Southeast 351 404 16,000 -1,967 Descending Albuquerque Center
Fri 03:40:46 PM 32.5381 -111.6128 140° Southeast 339 390 14,700 -1,869 Descending Albuquerque Center
Fri 03:41:17 PM 32.5194 -111.5831 127° Southeast 338 389 14,100 -627 Descending Albuquerque Center
Fri 03:41:53 PM 32.4753 -111.5308 135° Southeast 309 356 14,000 -95 Descending Albuquerque Center
Fri 03:42:20 PM 32.4481 -111.4969 134° Southeast 309 356 14,000  Level Albuquerque Center
Fri 03:42:54 PM 32.4094 -111.4550 137° Southeast 309 356 14,000 -295 Level Albuquerque Center
Fri 03:43:21 PM 32.3847 -111.4247 134° Southeast 313 360 13,700 -915 Descending Albuquerque Center
Fri 03:43:53 PM 32.3497 -111.3878 138° Southeast 308 354 13,100 -1,065 Descending Albuquerque Center
Fri 03:44:23 PM 32.3292 -111.3589 130° Southeast 292 336 12,600 -984 Descending Albuquerque Center
Fri 03:44:54 PM 32.2942 -111.3217 138° Southeast 280 322 12,100 -984 Descending Albuquerque Center
Fri 03:45:24 PM 32.2750 -111.2969 133° Southeast 275 316 11,600 -1,000 Descending Albuquerque Center
Fri 03:45:54 PM 32.2469 -111.2664 137° Southeast 246 283 11,100 -952 Descending Albuquerque Center
Fri 03:46:27 PM 32.2283 -111.2436 134° Southeast 245 282 10,600 -1,100 Descending Albuquerque Center
Fri 03:46:54 PM 32.2003 -111.2133 138° Southeast 233 268 10,000 -1,082 Descending Albuquerque Center
Fri 03:47:28 PM 32.1822 -111.1919 135° Southeast 232 267 9,500 -1,343 Descending Albuquerque Center
Fri 03:48:01 PM 32.1458 -111.1525 137° Southeast 230 265 8,500 -1,219 Descending Albuquerque Center
Fri 03:48:32 PM 32.1369 -111.1392 128° Southeast 230 265 8,200 -492 Descending Albuquerque Center
Fri 03:49:02 PM 32.1025 -111.1061 141° Southeast 218 251 8,000 -200 Descending Albuquerque Center
Fri 03:49:32 PM 32.0861 -111.0792 126° Southeast 223 257 8,000  Level Albuquerque Center
Fri 03:50:11 PM 32.0589 -111.0575 146° Southeast 202 232 8,000 -190 Level Albuquerque Center
Fri 03:50:35 PM 32.0461 -111.0358 125° Southeast 211 243 7,800 -500 Descending Albuquerque Center
Fri 03:51:11 PM 32.0181 -111.0133 146° Southeast 200 230 7,500 -492 Descending Albuquerque Center
Fri 03:51:36 PM 32.0092 -110.9911 115° Southeast 200 230 7,300 -610 Descending Albuquerque Center
Fri 03:52:10 PM 31.9992 -110.9503 106° East 201 231 6,900 -581 Descending Albuquerque Center
Fri 03:52:38 PM 31.9964 -110.9267 98° East 199 229 6,700 -627 Descending Albuquerque Center
Fri 03:53:17 PM 31.9853 -110.8789 105° East 209 241 6,200 -667 Descending Albuquerque Center
Fri 03:53:41 PM 31.9833 -110.8600 97° East 204 235 6,000 -900 Descending Albuquerque Center
Fri 03:54:17 PM 31.9878 -110.8153 83° East 197 227 5,300 -659 Descending Albuquerque Center
Fri 03:55:12 PM 32.0225 -110.8283 342° North 189 217 5,000 -414 Descending Albuquerque Center
Fri 03:56:13 PM 32.0592 -110.8739 314° West 194 223 4,500 -797 Descending Albuquerque Center
Fri 03:57:20 PM 32.0925 -110.9125 316° Northwest 138 159 3,300 -1,075 Descending Albuquerque Center

Login

Don't have an account? Register now (free) for customized features, flight alerts, and more!